createdAt,value
2017-02-21T00:00:40.051Z,23.47
2017-02-21T00:01:20.533Z,23.28
2017-02-21T00:02:01.045Z,23.39
2017-02-21T00:02:41.529Z,23.18
2017-02-21T00:03:22.047Z,23.28
2017-02-21T00:04:02.533Z,23.47
2017-02-21T00:04:43.036Z,23.66
2017-02-21T00:05:23.529Z,23.66
2017-02-21T00:06:04.021Z,23.28
2017-02-21T00:06:44.504Z,23.47
2017-02-21T00:07:25.005Z,23.38
2017-02-21T00:08:05.497Z,23.28
2017-02-21T00:08:45.992Z,23.28
2017-02-21T00:09:26.483Z,23.47
2017-02-21T00:10:06.974Z,23.47
2017-02-21T00:10:47.468Z,23.18
2017-02-21T00:11:27.955Z,23.47
2017-02-21T00:12:08.453Z,23.28
2017-02-21T00:12:48.941Z,23.38
2017-02-21T00:13:29.422Z,23.38
2017-02-21T00:14:09.928Z,23.47
2017-02-21T00:14:50.413Z,23.28
2017-02-21T00:15:30.898Z,23.38
2017-02-21T00:16:11.386Z,23.47
2017-02-21T00:16:51.870Z,23.38
2017-02-21T00:17:32.371Z,23.28
2017-02-21T00:18:12.869Z,23.38
2017-02-21T00:18:53.358Z,23.28
2017-02-21T00:19:33.856Z,23.38
2017-02-21T00:20:14.336Z,23.18
2017-02-21T00:20:54.831Z,23.18
2017-02-21T00:21:35.328Z,23.18
2017-02-21T00:22:15.834Z,23.18
2017-02-21T00:22:56.361Z,23.18
2017-02-21T00:23:36.825Z,23.08
2017-02-21T00:24:17.308Z,23.08
2017-02-21T00:24:57.801Z,23.08
2017-02-21T00:25:38.294Z,23.08
2017-02-21T00:26:18.781Z,23.08
2017-02-21T00:26:59.273Z,23.08
2017-02-21T00:27:39.771Z,23.18
2017-02-21T00:28:20.261Z,23.18
2017-02-21T00:29:00.750Z,23.18
2017-02-21T00:29:41.262Z,23.18
2017-02-21T00:30:21.747Z,23.18
2017-02-21T00:31:02.256Z,23.28
2017-02-21T00:31:42.745Z,23.08
2017-02-21T00:32:23.256Z,23.28
2017-02-21T00:33:03.748Z,23.28
2017-02-21T00:33:44.256Z,23.18
2017-02-21T00:34:24.753Z,23.18
2017-02-21T00:35:05.255Z,23.08
2017-02-21T00:35:45.746Z,23.18
2017-02-21T00:36:26.258Z,23.18
2017-02-21T00:37:06.749Z,23.28
2017-02-21T00:37:47.250Z,23.18
2017-02-21T00:38:27.745Z,23.18
2017-02-21T00:39:08.252Z,23.18
2017-02-21T00:39:48.739Z,23.28
2017-02-21T00:40:29.248Z,23.08
2017-02-21T00:41:09.736Z,23.28
2017-02-21T00:41:50.246Z,23.28
2017-02-21T00:42:30.739Z,23.08
2017-02-21T00:43:11.233Z,23.08
2017-02-21T00:43:51.730Z,23.08
2017-02-21T00:44:32.231Z,23.28
2017-02-21T00:45:12.711Z,23.18
2017-02-21T00:45:53.213Z,23.28
2017-02-21T00:46:33.707Z,23.08
2017-02-21T00:47:14.190Z,23.08
2017-02-21T00:47:54.692Z,23.18
2017-02-21T00:48:35.181Z,23.08
2017-02-21T00:49:15.676Z,23.08
2017-02-21T00:49:56.179Z,23.08
2017-02-21T00:50:36.675Z,23.08
2017-02-21T00:51:17.174Z,23.08
2017-02-21T00:51:57.670Z,23.08
2017-02-21T00:52:38.163Z,22.99
2017-02-21T00:53:18.653Z,22.89
2017-02-21T00:53:59.154Z,23.08
2017-02-21T00:54:39.654Z,22.99
2017-02-21T00:55:20.146Z,23.08
2017-02-21T00:56:00.861Z,22.89
2017-02-21T00:56:41.353Z,22.89
2017-02-21T00:57:21.836Z,22.89
2017-02-21T00:58:02.319Z,22.89
2017-02-21T00:58:42.802Z,22.89
2017-02-21T00:59:23.278Z,22.89
2017-02-21T01:00:03.780Z,22.89
2017-02-21T01:00:44.272Z,22.8
2017-02-21T01:01:24.780Z,22.8
2017-02-21T01:02:05.269Z,22.89
2017-02-21T01:02:45.763Z,22.89
2017-02-21T01:03:26.262Z,22.89
2017-02-21T01:04:06.743Z,22.89
2017-02-21T01:04:47.242Z,22.8
2017-02-21T01:05:27.734Z,22.99
2017-02-21T01:06:08.227Z,22.99
2017-02-21T01:06:48.724Z,23.08
2017-02-21T01:07:29.221Z,22.89
2017-02-21T01:08:09.715Z,22.8
2017-02-21T01:08:50.205Z,22.8
2017-02-21T01:09:30.713Z,22.89
2017-02-21T01:10:11.222Z,22.89
2017-02-21T01:10:51.724Z,22.8
2017-02-21T01:11:32.219Z,22.5
2017-02-21T01:12:12.711Z,22.41
2017-02-21T01:12:53.226Z,22.5
2017-02-21T01:13:33.711Z,22.41
2017-02-21T01:14:14.221Z,22.41
2017-02-21T01:14:54.716Z,22.41
2017-02-21T01:15:35.206Z,22.41
2017-02-21T01:16:15.699Z,22.89
2017-02-21T01:16:56.170Z,22.8
2017-02-21T01:17:36.665Z,22.5
2017-02-21T01:18:17.153Z,22.5
2017-02-21T01:18:57.647Z,22.5
2017-02-21T01:19:38.124Z,22.8
2017-02-21T01:20:18.611Z,22.5
2017-02-21T01:20:59.107Z,22.41
2017-02-21T01:21:39.590Z,22.6
2017-02-21T01:22:20.066Z,22.31
2017-02-21T01:23:00.575Z,22.6
2017-02-21T01:23:41.073Z,22.41
2017-02-21T01:24:21.559Z,22.31
2017-02-21T01:25:02.053Z,22.89
2017-02-21T01:25:42.552Z,22.6
2017-02-21T01:26:23.226Z,22.5
2017-02-21T01:27:03.730Z,22.5
2017-02-21T01:27:44.362Z,22.5
2017-02-21T01:28:24.861Z,22.5
2017-02-21T01:29:05.353Z,22.5
2017-02-21T01:29:45.843Z,22.5
2017-02-21T01:30:26.348Z,22.6
2017-02-21T01:31:06.843Z,22.5
2017-02-21T01:31:47.343Z,22.5
2017-02-21T01:32:27.852Z,22.5
2017-02-21T01:33:08.345Z,22.5
2017-02-21T01:33:48.851Z,22.7
2017-02-21T01:34:29.342Z,22.5
2017-02-21T01:35:09.853Z,22.6
2017-02-21T01:35:50.342Z,22.5
2017-02-21T01:36:30.838Z,22.5
2017-02-21T01:37:11.339Z,22.41
2017-02-21T01:37:51.827Z,22.41
2017-02-21T01:38:32.313Z,22.41
2017-02-21T01:39:12.810Z,22.41
2017-02-21T01:39:53.404Z,22.7
2017-02-21T01:40:33.894Z,22.6
2017-02-21T01:41:14.400Z,22.5
2017-02-21T01:41:54.897Z,22.5
2017-02-21T01:42:35.426Z,22.41
2017-02-21T01:43:15.889Z,22.5
2017-02-21T01:43:56.382Z,22.5
2017-02-21T01:44:36.879Z,22.5
2017-02-21T01:45:17.391Z,22.5
2017-02-21T01:45:57.885Z,22.41
2017-02-21T01:46:38.395Z,22.41
2017-02-21T01:47:18.882Z,22.5
2017-02-21T01:47:59.395Z,22.8
2017-02-21T01:48:39.885Z,22.6
2017-02-21T01:49:20.378Z,22.5
2017-02-21T01:50:00.880Z,22.6
2017-02-21T01:50:41.379Z,22.6
2017-02-21T01:51:21.876Z,22.7
2017-02-21T01:52:02.372Z,22.6
2017-02-21T01:52:42.880Z,22.31
2017-02-21T01:53:23.376Z,22.31
2017-02-21T01:54:03.873Z,22.31
2017-02-21T01:54:44.423Z,22.31
2017-02-21T01:55:24.884Z,22.89
2017-02-21T01:56:05.384Z,22.6
2017-02-21T01:56:45.875Z,22.6
2017-02-21T01:57:26.383Z,22.22
2017-02-21T01:58:06.869Z,22.5
2017-02-21T01:58:47.356Z,22.5
2017-02-21T01:59:27.842Z,22.41
2017-02-21T02:00:08.327Z,22.41
2017-02-21T02:00:48.832Z,22.31
2017-02-21T02:01:29.314Z,22.41
2017-02-21T02:02:09.811Z,22.22
2017-02-21T02:02:50.292Z,22.41
2017-02-21T02:03:30.791Z,22.22
2017-02-21T02:04:11.285Z,22.12
2017-02-21T02:04:51.793Z,22.02
2017-02-21T02:05:32.292Z,22.12
2017-02-21T02:06:12.788Z,22.02
2017-02-21T02:06:53.283Z,22.12
2017-02-21T02:07:33.763Z,22.12
2017-02-21T02:08:14.252Z,22.12
2017-02-21T02:08:54.748Z,22.22
2017-02-21T02:09:35.236Z,22.12
2017-02-21T02:10:15.733Z,22.12
2017-02-21T02:10:56.218Z,22.22
2017-02-21T02:11:36.715Z,22.31
2017-02-21T02:12:17.199Z,22.02
2017-02-21T02:12:57.717Z,22.12
2017-02-21T02:13:38.206Z,22.12
2017-02-21T02:14:18.704Z,22.22
2017-02-21T02:14:59.205Z,22.22
2017-02-21T02:15:39.696Z,22.02
2017-02-21T02:16:20.196Z,22.22
2017-02-21T02:17:00.709Z,22.02
2017-02-21T02:17:41.167Z,22.12
2017-02-21T02:18:21.655Z,22.22
2017-02-21T02:19:02.174Z,22.12
2017-02-21T02:19:42.676Z,22.31
2017-02-21T02:20:23.174Z,22.31
2017-02-21T02:21:03.655Z,22.41
2017-02-21T02:21:44.160Z,22.31
2017-02-21T02:22:24.644Z,22.31
2017-02-21T02:23:05.138Z,22.31
2017-02-21T02:23:45.618Z,22.41
2017-02-21T02:24:26.108Z,22.31
2017-02-21T02:25:06.604Z,22.41
2017-02-21T02:25:47.091Z,22.41
2017-02-21T02:26:27.583Z,22.31
2017-02-21T02:27:08.082Z,22.41
2017-02-21T02:27:48.742Z,22.41
2017-02-21T02:28:29.254Z,22.31
2017-02-21T02:29:09.743Z,22.41
2017-02-21T02:29:50.236Z,22.12
2017-02-21T02:30:30.727Z,22.41
2017-02-21T02:31:11.220Z,22.31
2017-02-21T02:31:51.715Z,22.31
2017-02-21T02:32:32.199Z,22.41
2017-02-21T02:33:12.696Z,22.41
2017-02-21T02:33:53.189Z,22.5
2017-02-21T02:34:33.683Z,22.31
2017-02-21T02:35:14.184Z,22.5
2017-02-21T02:35:54.677Z,22.12
2017-02-21T02:36:35.178Z,22.31
2017-02-21T02:37:15.659Z,22.5
2017-02-21T02:37:56.156Z,22.02
2017-02-21T02:38:36.657Z,22.12
2017-02-21T02:39:17.152Z,22.22
2017-02-21T02:39:57.632Z,22.31
2017-02-21T02:40:38.135Z,22.5
2017-02-21T02:41:18.644Z,22.5
2017-02-21T02:41:59.166Z,22.31
2017-02-21T02:42:39.643Z,22.31
2017-02-21T02:43:20.136Z,22.22
2017-02-21T02:44:00.625Z,22.31
2017-02-21T02:44:41.118Z,22.12
2017-02-21T02:45:21.599Z,22.22
2017-02-21T02:46:02.093Z,22.41
2017-02-21T02:46:42.595Z,22.31
2017-02-21T02:47:23.086Z,22.02
2017-02-21T02:48:03.610Z,22.12
2017-02-21T02:48:44.097Z,22.31
2017-02-21T02:49:24.596Z,22.22
2017-02-21T02:50:05.081Z,22.12
2017-02-21T02:50:45.579Z,22.12
2017-02-21T02:51:26.067Z,22.22
2017-02-21T02:52:06.578Z,22.31
2017-02-21T02:52:47.065Z,22.12
2017-02-21T02:53:27.561Z,22.31
2017-02-21T02:54:08.059Z,22.31
2017-02-21T02:54:48.528Z,22.22
2017-02-21T02:55:29.037Z,22.22
2017-02-21T02:56:09.534Z,22.22
2017-02-21T02:56:50.037Z,22.22
2017-02-21T02:57:30.542Z,22.22
2017-02-21T02:58:11.239Z,22.12
2017-02-21T02:58:51.727Z,22.22
2017-02-21T02:59:32.234Z,22.12
2017-02-21T03:00:12.730Z,22.31
2017-02-21T03:00:53.223Z,22.22
2017-02-21T03:01:33.709Z,22.22
2017-02-21T03:02:14.207Z,22.31
2017-02-21T03:02:54.709Z,22.22
2017-02-21T03:03:35.217Z,22.31
2017-02-21T03:04:15.706Z,22.12
2017-02-21T03:04:56.222Z,22.12
2017-02-21T03:07:09.020Z,22.31
2017-02-21T03:07:49.514Z,22.31
2017-02-21T03:08:30.032Z,22.02
2017-02-21T03:09:10.518Z,22.22
2017-02-21T03:09:51.030Z,22.02
2017-02-21T03:10:31.518Z,22.02
2017-02-21T03:11:12.015Z,22.02
2017-02-21T03:11:52.517Z,22.02
2017-02-21T03:12:33.029Z,21.92
2017-02-21T03:13:13.627Z,22.22
2017-02-21T03:13:54.146Z,22.02
2017-02-21T03:14:34.635Z,21.92
2017-02-21T03:15:15.123Z,22.02
2017-02-21T03:15:55.616Z,22.12
2017-02-21T03:16:36.119Z,22.22
2017-02-21T03:17:16.611Z,22.22
2017-02-21T03:17:57.107Z,22.02
2017-02-21T03:18:37.585Z,22.22
2017-02-21T03:19:18.080Z,22.02
2017-02-21T03:19:58.585Z,22.02
2017-02-21T03:20:39.080Z,22.02
2017-02-21T03:21:19.573Z,22.02
2017-02-21T03:22:00.055Z,21.92
2017-02-21T03:22:40.549Z,22.02
2017-02-21T03:23:21.027Z,22.02
2017-02-21T03:24:01.511Z,22.02
2017-02-21T03:24:41.999Z,22.11
2017-02-21T03:25:22.478Z,22.2
2017-02-21T03:26:02.974Z,22.02
2017-02-21T03:26:43.463Z,22.31
2017-02-21T03:27:23.950Z,22.02
2017-02-21T03:28:04.445Z,22.12
2017-02-21T03:28:44.926Z,22.02
2017-02-21T03:29:25.409Z,22.12
2017-02-21T03:30:05.904Z,22.11
2017-02-21T03:30:46.397Z,22.12
2017-02-21T03:31:26.893Z,22.31
2017-02-21T03:32:07.386Z,22.12
2017-02-21T03:32:47.848Z,22.12
2017-02-21T03:33:28.336Z,22.02
2017-02-21T03:34:08.845Z,22.12
2017-02-21T03:34:49.351Z,22.22
2017-02-21T03:35:29.834Z,22.22
2017-02-21T03:36:10.320Z,22.02
2017-02-21T03:36:50.808Z,22.12
2017-02-21T03:37:31.288Z,22.02
2017-02-21T03:38:11.796Z,22.02
2017-02-21T03:38:52.281Z,22.2
2017-02-21T03:39:32.764Z,22.3
2017-02-21T03:40:13.259Z,22.12
2017-02-21T03:40:53.748Z,22.31
2017-02-21T03:41:34.247Z,22.12
2017-02-21T03:42:14.735Z,22.22
2017-02-21T03:42:55.246Z,22.2
2017-02-21T03:43:35.763Z,22.41
2017-02-21T03:44:16.243Z,22.22
2017-02-21T03:44:56.730Z,22.31
2017-02-21T03:45:37.224Z,22.02
2017-02-21T03:46:17.723Z,22.02
2017-02-21T03:46:58.185Z,22.3
2017-02-21T03:47:38.693Z,22.02
2017-02-21T03:48:19.194Z,21.92
2017-02-21T03:48:59.686Z,22.31
2017-02-21T03:49:40.164Z,22.02
2017-02-21T03:50:20.639Z,22.02
2017-02-21T03:51:01.130Z,22.02
2017-02-21T03:51:41.621Z,22.02
2017-02-21T03:52:22.112Z,22.22
2017-02-21T03:53:02.594Z,21.92
2017-02-21T03:53:43.077Z,22.12
2017-02-21T03:54:23.577Z,22.02
2017-02-21T03:55:04.063Z,22.02
2017-02-21T03:55:44.564Z,21.92
2017-02-21T03:56:25.067Z,21.92
2017-02-21T03:57:05.561Z,22.12
2017-02-21T03:57:46.065Z,21.92
2017-02-21T03:58:26.576Z,22.12
2017-02-21T03:59:07.061Z,21.92
2017-02-21T03:59:47.557Z,21.83
2017-02-21T04:00:28.039Z,21.73
2017-02-21T04:01:08.529Z,21.83
2017-02-21T04:01:49.021Z,21.83
2017-02-21T04:02:29.507Z,22.02
2017-02-21T04:03:10.015Z,21.83
2017-02-21T04:03:50.712Z,21.83
2017-02-21T04:04:31.223Z,21.83
2017-02-21T04:05:11.705Z,21.83
2017-02-21T04:05:52.220Z,21.92
2017-02-21T04:06:32.712Z,21.83
2017-02-21T04:07:13.207Z,21.73
2017-02-21T04:07:53.703Z,21.92
2017-02-21T04:08:34.222Z,21.83
2017-02-21T04:09:14.707Z,21.73
2017-02-21T04:09:55.203Z,21.73
2017-02-21T04:10:35.701Z,21.73
2017-02-21T04:11:16.211Z,21.73
2017-02-21T04:11:56.707Z,21.64
2017-02-21T04:12:37.217Z,22.02
2017-02-21T04:13:17.702Z,21.64
2017-02-21T04:13:58.191Z,21.73
2017-02-21T04:14:38.679Z,21.64
2017-02-21T04:15:19.165Z,21.64
2017-02-21T04:15:59.660Z,21.73
2017-02-21T04:16:40.150Z,21.73
2017-02-21T04:17:20.643Z,21.73
2017-02-21T04:18:01.173Z,21.73
2017-02-21T04:18:41.641Z,21.64
2017-02-21T04:19:22.133Z,21.54
2017-02-21T04:20:02.622Z,21.64
2017-02-21T04:20:43.113Z,21.64
2017-02-21T04:21:23.596Z,21.64
2017-02-21T04:22:04.110Z,21.73
2017-02-21T04:22:44.592Z,21.64
2017-02-21T04:23:25.118Z,21.64
2017-02-21T04:24:05.594Z,21.64
2017-02-21T04:24:46.102Z,21.64
2017-02-21T04:25:26.589Z,21.54
2017-02-21T04:26:07.084Z,21.64
2017-02-21T04:26:47.586Z,21.54
2017-02-21T04:27:28.080Z,21.64
2017-02-21T04:28:08.565Z,21.54
2017-02-21T04:28:49.040Z,21.64
2017-02-21T04:29:29.554Z,21.62
2017-02-21T04:30:10.039Z,21.64
2017-02-21T04:30:50.542Z,21.62
2017-02-21T04:31:31.030Z,21.73
2017-02-21T04:32:11.530Z,21.64
2017-02-21T04:32:52.028Z,21.62
2017-02-21T04:33:32.539Z,21.83
2017-02-21T04:34:13.235Z,21.72
2017-02-21T04:34:53.741Z,21.54
2017-02-21T04:35:34.233Z,21.72
2017-02-21T04:36:14.751Z,21.73
2017-02-21T04:36:55.241Z,21.53
2017-02-21T04:37:35.739Z,21.64
2017-02-21T04:38:16.233Z,21.64
2017-02-21T04:38:56.742Z,21.64
2017-02-21T04:39:37.306Z,21.64
2017-02-21T04:40:17.802Z,21.64
2017-02-21T04:40:58.300Z,21.54
2017-02-21T04:41:38.797Z,21.53
2017-02-21T04:42:19.303Z,21.64
2017-02-21T04:42:59.795Z,21.62
2017-02-21T04:43:40.294Z,21.53
2017-02-21T04:44:20.778Z,21.62
2017-02-21T04:45:01.289Z,21.64
2017-02-21T04:45:41.779Z,21.62
2017-02-21T04:46:22.288Z,21.64
2017-02-21T04:47:02.765Z,21.92
2017-02-21T04:47:43.288Z,21.73
2017-02-21T04:48:23.773Z,21.82
2017-02-21T04:49:04.290Z,21.73
2017-02-21T04:49:44.778Z,21.83
2017-02-21T04:50:25.282Z,21.83
2017-02-21T04:51:05.773Z,21.92
2017-02-21T04:51:46.264Z,21.92
2017-02-21T04:52:26.764Z,21.92
2017-02-21T04:53:07.260Z,21.92
2017-02-21T04:53:47.745Z,21.92
2017-02-21T04:54:28.243Z,21.73
2017-02-21T04:55:08.778Z,21.92
2017-02-21T04:55:49.281Z,21.83
2017-02-21T04:56:29.768Z,21.44
2017-02-21T04:57:10.257Z,21.92
2017-02-21T04:57:50.741Z,21.83
2017-02-21T04:58:31.232Z,21.35
2017-02-21T04:59:11.723Z,21.73
2017-02-21T04:59:52.210Z,21.82
2017-02-21T05:00:32.709Z,21.92
2017-02-21T05:01:13.207Z,21.73
2017-02-21T05:01:53.707Z,21.73
2017-02-21T05:02:34.187Z,21.54
2017-02-21T05:03:14.665Z,21.64
2017-02-21T05:03:55.148Z,21.62
2017-02-21T05:04:35.631Z,21.82
2017-02-21T05:05:16.113Z,21.64
2017-02-21T05:05:56.612Z,21.44
2017-02-21T05:06:37.101Z,21.44
2017-02-21T05:07:17.611Z,21.44
2017-02-21T05:07:58.098Z,21.53
2017-02-21T05:08:38.595Z,21.73
2017-02-21T05:09:19.102Z,21.64
2017-02-21T05:09:59.594Z,21.64
2017-02-21T05:10:40.066Z,21.53
2017-02-21T05:11:20.566Z,21.64
2017-02-21T05:12:01.060Z,21.64
2017-02-21T05:12:41.547Z,21.54
2017-02-21T05:13:22.039Z,21.54
2017-02-21T05:14:02.536Z,21.62
2017-02-21T05:14:43.017Z,21.92
2017-02-21T05:15:23.503Z,21.73
2017-02-21T05:16:03.989Z,21.73
2017-02-21T05:16:44.492Z,21.82
2017-02-21T05:17:24.993Z,21.73
2017-02-21T05:18:05.486Z,21.83
2017-02-21T05:18:45.978Z,21.72
2017-02-21T05:19:26.464Z,21.72
2017-02-21T05:20:06.960Z,21.44
2017-02-21T05:20:47.441Z,21.54
2017-02-21T05:21:27.943Z,21.54
2017-02-21T05:22:08.428Z,21.54
2017-02-21T05:22:48.943Z,21.44
2017-02-21T05:23:29.436Z,21.54
2017-02-21T05:24:09.928Z,21.62
2017-02-21T05:24:50.421Z,21.64
2017-02-21T05:25:30.915Z,21.62
2017-02-21T05:26:11.408Z,21.62
2017-02-21T05:26:51.892Z,21.64
2017-02-21T05:27:32.388Z,21.44
2017-02-21T05:28:12.877Z,21.62
2017-02-21T05:28:53.376Z,21.62
2017-02-21T05:29:33.877Z,21.44
2017-02-21T05:30:14.388Z,21.53
2017-02-21T05:30:54.885Z,21.64
2017-02-21T05:31:35.383Z,21.54
2017-02-21T05:32:15.874Z,21.44
2017-02-21T05:32:56.368Z,21.44
2017-02-21T05:33:36.871Z,21.64
2017-02-21T05:34:17.352Z,21.54
2017-02-21T05:34:57.849Z,21.44
2017-02-21T05:35:38.329Z,21.44
2017-02-21T05:36:18.832Z,21.64
2017-02-21T05:36:59.321Z,21.64
2017-02-21T05:37:39.829Z,21.64
2017-02-21T05:38:20.315Z,21.64
2017-02-21T05:39:00.799Z,21.62
2017-02-21T05:39:41.284Z,21.54
2017-02-21T05:40:21.778Z,21.54
2017-02-21T05:41:02.280Z,21.44
2017-02-21T05:41:42.765Z,21.44
2017-02-21T05:42:23.258Z,21.62
2017-02-21T05:43:03.750Z,21.62
2017-02-21T05:43:44.240Z,21.54
2017-02-21T05:44:24.730Z,21.44
2017-02-21T05:45:05.218Z,21.53
2017-02-21T05:45:45.716Z,21.44
2017-02-21T05:46:26.203Z,21.54
2017-02-21T05:47:06.697Z,21.54
2017-02-21T05:47:47.182Z,21.62
2017-02-21T05:48:27.681Z,21.54
2017-02-21T05:49:08.175Z,21.44
2017-02-21T05:49:48.652Z,21.54
2017-02-21T05:50:29.148Z,21.54
2017-02-21T05:51:09.629Z,21.44
2017-02-21T05:51:50.112Z,21.53
2017-02-21T05:52:30.618Z,21.53
2017-02-21T05:53:11.107Z,21.44
2017-02-21T05:53:51.607Z,21.54
2017-02-21T05:54:32.097Z,21.54
2017-02-21T05:55:12.589Z,21.64
2017-02-21T05:55:53.074Z,21.44
2017-02-21T05:56:33.576Z,21.44
2017-02-21T05:57:14.058Z,21.44
2017-02-21T05:57:54.551Z,21.44
2017-02-21T05:58:35.063Z,21.44
2017-02-21T05:59:15.547Z,21.54
2017-02-21T05:59:56.053Z,21.54
2017-02-21T06:00:36.760Z,21.54
2017-02-21T06:01:17.272Z,21.54
2017-02-21T06:01:57.763Z,21.44
2017-02-21T06:02:38.254Z,21.44
2017-02-21T06:03:18.742Z,21.64
2017-02-21T06:03:59.242Z,21.53
2017-02-21T06:04:39.742Z,21.54
2017-02-21T06:05:20.248Z,21.62
2017-02-21T06:06:00.749Z,21.54
2017-02-21T06:06:41.250Z,21.64
2017-02-21T06:07:21.741Z,21.64
2017-02-21T06:08:02.258Z,21.64
2017-02-21T06:08:42.745Z,21.73
2017-02-21T06:09:23.246Z,21.35
2017-02-21T06:10:03.737Z,21.35
2017-02-21T06:10:44.231Z,21.35
2017-02-21T06:11:24.714Z,21.35
2017-02-21T06:12:05.212Z,21.44
2017-02-21T06:12:45.726Z,21.35
2017-02-21T06:13:26.210Z,21.35
2017-02-21T06:14:06.704Z,21.44
2017-02-21T06:14:47.184Z,21.44
2017-02-21T06:15:27.643Z,21.44
2017-02-21T06:16:08.156Z,21.54
2017-02-21T06:16:48.646Z,21.54
2017-02-21T06:17:29.151Z,21.35
2017-02-21T06:18:09.649Z,21.44
2017-02-21T06:18:50.285Z,21.44
2017-02-21T06:19:30.787Z,21.54
2017-02-21T06:20:11.281Z,21.44
2017-02-21T06:20:51.786Z,21.44
2017-02-21T06:21:32.278Z,21.54
2017-02-21T06:22:12.788Z,21.54
2017-02-21T06:22:53.279Z,21.44
2017-02-21T06:23:33.786Z,21.83
2017-02-21T06:24:14.283Z,21.83
2017-02-21T06:24:54.772Z,21.83
2017-02-21T06:25:35.270Z,21.73
2017-02-21T06:26:15.766Z,21.44
2017-02-21T06:26:56.272Z,21.53
2017-02-21T06:27:36.771Z,21.54
2017-02-21T06:28:17.263Z,21.53
2017-02-21T06:28:57.754Z,21.83
2017-02-21T06:29:38.239Z,21.73
2017-02-21T06:30:18.728Z,21.35
2017-02-21T06:30:59.397Z,21.54
2017-02-21T06:31:39.891Z,21.25
2017-02-21T06:32:20.378Z,21.54
2017-02-21T06:33:00.877Z,21.54
2017-02-21T06:33:41.367Z,21.35
2017-02-21T06:34:21.867Z,21.35
2017-02-21T06:35:02.367Z,21.35
2017-02-21T06:35:42.866Z,21.35
2017-02-21T06:36:23.362Z,21.54
2017-02-21T06:37:03.873Z,21.35
2017-02-21T06:37:44.364Z,21.35
2017-02-21T06:38:24.859Z,21.35
2017-02-21T06:39:05.342Z,20.96
2017-02-21T06:39:45.821Z,20.96
2017-02-21T06:40:26.333Z,20.86
2017-02-21T06:41:06.820Z,20.96
2017-02-21T06:41:47.324Z,20.96
2017-02-21T06:42:27.811Z,20.96
2017-02-21T06:43:08.303Z,21.06
2017-02-21T06:43:48.804Z,20.96
2017-02-21T06:44:29.282Z,21.15
2017-02-21T06:45:09.778Z,21.06
2017-02-21T06:45:50.262Z,21.25
2017-02-21T06:46:30.768Z,21.15
2017-02-21T06:47:11.255Z,21.15
2017-02-21T06:47:51.752Z,21.25
2017-02-21T06:48:32.255Z,20.96
2017-02-21T06:49:12.724Z,21.15
2017-02-21T06:49:53.223Z,21.15
2017-02-21T06:50:33.713Z,21.15
2017-02-21T06:51:14.206Z,21.15
2017-02-21T06:51:54.697Z,21.06
2017-02-21T06:52:35.193Z,21.34
2017-02-21T06:53:15.691Z,21.25
2017-02-21T06:53:56.174Z,21.06
2017-02-21T06:54:36.670Z,20.86
2017-02-21T06:55:17.174Z,20.86
2017-02-21T06:55:57.663Z,20.86
2017-02-21T06:56:38.154Z,20.95
2017-02-21T06:57:18.652Z,20.95
2017-02-21T06:57:59.157Z,20.57
2017-02-21T06:58:39.649Z,20.66
2017-02-21T06:59:20.139Z,20.67
2017-02-21T07:00:00.636Z,20.77
2017-02-21T07:00:41.118Z,20.77
2017-02-21T07:01:21.606Z,20.77
2017-02-21T07:02:02.097Z,20.77
2017-02-21T07:02:42.588Z,20.77
2017-02-21T07:03:23.080Z,20.77
2017-02-21T07:04:03.562Z,20.77
2017-02-21T07:04:44.048Z,20.77
2017-02-21T07:05:24.540Z,20.86
2017-02-21T07:06:05.032Z,20.77
2017-02-21T07:06:45.522Z,20.86
2017-02-21T07:07:26.008Z,20.86
2017-02-21T07:08:06.505Z,20.77
2017-02-21T07:08:47.001Z,20.77
2017-02-21T07:09:27.501Z,20.77
2017-02-21T07:10:07.998Z,20.77
2017-02-21T07:10:48.485Z,20.77
2017-02-21T07:11:28.992Z,20.77
2017-02-21T07:12:09.496Z,20.86
2017-02-21T07:12:49.997Z,20.77
2017-02-21T07:13:30.490Z,20.96
2017-02-21T07:14:10.981Z,20.86
2017-02-21T07:14:51.472Z,20.86
2017-02-21T07:15:31.979Z,20.86
2017-02-21T07:16:12.472Z,20.96
2017-02-21T07:16:52.981Z,20.86
2017-02-21T07:17:34.463Z,20.86
2017-02-21T07:18:14.953Z,20.57
2017-02-21T07:18:55.450Z,20.77
2017-02-21T07:19:35.940Z,20.86
2017-02-21T07:20:16.437Z,20.86
2017-02-21T07:20:56.922Z,20.86
2017-02-21T07:21:37.417Z,20.77
2017-02-21T07:22:17.907Z,20.67
2017-02-21T07:22:58.394Z,20.57
2017-02-21T07:23:38.895Z,20.77
2017-02-21T07:24:19.386Z,20.67
2017-02-21T07:24:59.879Z,20.77
2017-02-21T07:25:40.371Z,20.77
2017-02-21T07:26:20.837Z,20.77
2017-02-21T07:27:01.328Z,20.77
2017-02-21T07:27:41.823Z,20.57
2017-02-21T07:28:22.327Z,20.67
2017-02-21T07:29:02.823Z,20.57
2017-02-21T07:29:43.328Z,20.67
2017-02-21T07:30:23.821Z,20.48
2017-02-21T07:31:04.310Z,20.77
2017-02-21T07:31:44.799Z,20.67
2017-02-21T07:32:25.280Z,20.67
2017-02-21T07:33:05.791Z,20.67
2017-02-21T07:33:46.288Z,20.57
2017-02-21T07:34:26.780Z,20.57
2017-02-21T07:35:07.270Z,20.57
2017-02-21T07:35:47.765Z,20.77
2017-02-21T07:36:28.269Z,20.67
2017-02-21T07:37:08.753Z,20.38
2017-02-21T07:37:49.251Z,20.67
2017-02-21T07:38:29.748Z,20.77
2017-02-21T07:39:10.229Z,20.67
2017-02-21T07:39:51.236Z,20.57
2017-02-21T07:40:31.743Z,20.77
2017-02-21T07:41:12.229Z,20.67
2017-02-21T07:41:52.726Z,20.86
2017-02-21T07:42:33.223Z,20.57
2017-02-21T07:43:13.744Z,20.67
2017-02-21T07:43:54.227Z,20.77
2017-02-21T07:44:34.732Z,20.67
2017-02-21T07:45:15.225Z,20.67
2017-02-21T07:45:55.718Z,20.57
2017-02-21T07:46:36.212Z,20.57
2017-02-21T07:47:16.701Z,20.57
2017-02-21T07:47:57.191Z,20.77
2017-02-21T07:48:37.678Z,20.77
2017-02-21T07:49:18.176Z,20.77
2017-02-21T07:49:58.719Z,20.67
2017-02-21T07:50:39.215Z,20.67
2017-02-21T07:51:19.714Z,20.86
2017-02-21T07:52:00.195Z,20.86
2017-02-21T07:52:40.680Z,20.67
2017-02-21T07:53:21.174Z,20.77
2017-02-21T07:54:01.664Z,20.57
2017-02-21T07:54:42.159Z,20.49
2017-02-21T07:55:22.659Z,20.59
2017-02-21T07:56:03.160Z,20.59
2017-02-21T07:56:43.653Z,20.68
2017-02-21T07:57:24.138Z,20.68
2017-02-21T07:58:04.628Z,20.68
2017-02-21T07:58:45.113Z,20.68
2017-02-21T07:59:25.603Z,20.68
2017-02-21T08:00:06.109Z,20.59
2017-02-21T08:00:46.599Z,20.49
2017-02-21T08:01:27.083Z,20.39
2017-02-21T08:02:07.573Z,20.49
2017-02-21T08:02:48.051Z,20.29
2017-02-21T08:03:28.565Z,20.2
2017-02-21T08:04:09.066Z,20.01
2017-02-21T08:04:49.556Z,20.29
2017-02-21T08:05:30.050Z,20.11
2017-02-21T08:06:10.546Z,20.11
2017-02-21T08:06:51.029Z,20.21
2017-02-21T08:07:31.753Z,20.01
2017-02-21T08:08:12.213Z,20.01
2017-02-21T08:08:52.716Z,20.01
2017-02-21T08:09:33.202Z,20.11
2017-02-21T08:10:13.694Z,19.82
2017-02-21T08:10:54.194Z,19.82
2017-02-21T08:11:34.675Z,20.11
2017-02-21T08:12:15.187Z,19.92
2017-02-21T08:12:55.683Z,20.01
2017-02-21T08:13:36.174Z,19.92
2017-02-21T08:14:16.673Z,20.01
2017-02-21T08:14:57.161Z,19.73
2017-02-21T08:15:37.653Z,19.92
2017-02-21T08:16:18.156Z,19.92
2017-02-21T08:16:58.643Z,19.92
2017-02-21T08:17:39.163Z,19.92
2017-02-21T08:18:19.652Z,19.92
2017-02-21T08:19:00.157Z,19.82
2017-02-21T08:19:40.646Z,19.93
2017-02-21T08:20:21.327Z,19.64
2017-02-21T08:21:01.838Z,19.73
2017-02-21T08:21:42.319Z,19.25
2017-02-21T08:22:22.813Z,19.25
2017-02-21T08:23:03.965Z,19.54
2017-02-21T08:23:44.452Z,19.35
2017-02-21T08:24:24.971Z,19.25
2017-02-21T08:25:05.455Z,19.35
2017-02-21T08:25:45.951Z,19.35
2017-02-21T08:26:26.440Z,19.35
2017-02-21T08:27:06.923Z,19.45
2017-02-21T08:27:47.420Z,19.45
2017-02-21T08:28:27.909Z,19.35
2017-02-21T08:29:08.410Z,19.45
2017-02-21T08:29:48.898Z,19.54
2017-02-21T08:30:29.410Z,19.35
2017-02-21T08:31:09.900Z,19.35
2017-02-21T08:31:50.404Z,19.35
2017-02-21T08:32:30.895Z,19.54
2017-02-21T08:33:11.394Z,19.45
2017-02-21T08:33:51.897Z,19.35
2017-02-21T08:34:32.405Z,19.45
2017-02-21T08:35:12.900Z,19.25
2017-02-21T08:35:53.393Z,19.45
2017-02-21T08:36:34.572Z,19.26
2017-02-21T08:37:15.060Z,19.26
2017-02-21T08:37:55.566Z,19.17
2017-02-21T08:38:36.057Z,19.17
2017-02-21T08:39:16.549Z,18.87
2017-02-21T08:39:57.050Z,18.87
2017-02-21T08:40:37.549Z,18.87
2017-02-21T08:41:18.028Z,18.68
2017-02-21T08:41:58.516Z,18.59
2017-02-21T08:42:39.011Z,18.79
2017-02-21T08:43:19.495Z,18.69
2017-02-21T08:44:00.665Z,18.79
2017-02-21T08:44:41.158Z,18.88